Latest Weather Observations for Coen Airport

IDQ60801

Issued at 2:32 pm EST Monday 6 July 2015 (issued every 30 minutes, with the page automatically refreshed every 10 minutes)

About weather observations | Map of weather stations | Latest weather observations for QLD | Other Formats
Station Details ID: 027073 Name: COEN AIRPORT Lat: -13.76 Lon: 143.12 Height: 159.3 m
Data from the previous 72 hours. | See also: Recent months at Coen Airport
Date/Time
EST
Temp
°C
App
Temp
°C
Dew
Point
Rel
Hum
%
Delta-T
°C
Wind Press
QNH
hPa
Press
MSL
hPa
Rain
since 9 am
mm
Dir
 
Spd
km/h
Gust
km/h
Spd
kts
Gust
kts
06/02:30pm 26.3 23.9 13.8 46 7.4 ESE 19 30 10 16 1013.9 - 0.0
06/02:00pm 27.8 26.0 14.4 43 8.1 E 17 26 9 14 1014.1 - 0.0
06/01:30pm 26.4 25.1 14.8 49 7.0 NE 15 26 8 14 1014.5 - 0.0
06/01:00pm 27.4 25.5 14.1 44 8.0 E 17 24 9 13 1014.9 - 0.0
06/12:30pm 25.9 24.9 14.7 50 6.8 ENE 13 24 7 13 1015.5 - 0.0
06/12:00pm 27.2 25.6 14.9 47 7.5 NE 17 33 9 18 1016.0 1015.3 0.0
06/11:30am 27.0 25.2 14.4 46 7.6 ENE 17 28 9 15 1016.5 - 0.0
06/11:00am 26.7 26.2 16.0 52 6.6 ENE 13 20 7 11 1016.8 - 0.0
06/10:30am 26.7 26.3 16.3 53 6.5 E 13 20 7 11 1017.2 - 0.0
06/10:00am 25.5 25.0 15.8 55 5.9 E 13 19 7 10 1017.3 - 0.0
06/09:30am 25.2 25.0 15.8 56 5.8 E 11 20 6 11 1017.2 - 0.0
06/09:00am 24.0 23.7 15.5 59 5.1 E 11 19 6 10 1017.0 1016.4 0.0
06/08:30am 23.4 24.0 16.7 66 4.1 E 9 15 5 8 1016.7 - 0.0
06/08:00am 21.7 22.9 17.3 76 2.7 ENE 7 13 4 7 1016.4 - 0.0
06/07:30am 18.4 19.3 16.6 89 1.1 ESE 7 9 4 5 1016.0 - 0.0
06/07:00am 16.8 17.2 15.2 90 0.9 E 7 9 4 5 1015.9 - 0.0
06/06:30am 17.8 18.8 16.3 91 0.9 E 6 9 3 5 1015.5 - 0.0
06/06:00am 18.6 19.4 17.3 92 0.8 E 9 15 5 8 1015.3 - 0.0
06/05:30am 15.8 16.8 14.2 90 0.9 E 2 7 1 4 1015.4 - 0.0
06/05:00am 16.5 17.4 15.2 92 0.8 ESE 4 9 2 5 1015.4 - 0.0
06/04:30am 15.8 17.1 14.0 89 1.0 CALM 0 6 0 3 1015.2 - 0.0
06/04:00am 17.1 18.5 15.3 89 1.1 E 2 7 1 4 1015.1 - 0.0
06/03:30am 17.8 18.3 15.6 87 1.3 E 7 9 4 5 1015.3 - 0.0
06/03:00am 16.9 17.2 15.9 94 0.6 ESE 9 11 5 6 1015.4 - 0.0
06/02:30am 15.9 16.0 14.4 91 0.9 E 7 9 4 5 1015.5 - 0.0
06/02:00am 15.6 16.0 13.8 89 1.0 ENE 4 9 2 5 1015.8 - 0.0
06/01:30am 17.0 18.4 15.5 91 0.9 ESE 2 7 1 4 1016.1 - 0.0
06/01:00am 16.7 16.8 14.0 84 1.5 ESE 6 7 3 4 1016.2 - 0.0
06/12:30am 18.5 19.2 15.7 84 1.7 E 6 9 3 5 1016.4 - 0.0
06/12:00am 18.4 19.3 16.2 87 1.3 SE 6 9 3 5 1016.4 1015.7 0.0
 
Date/Time
EST
Temp
°C
App
Temp
°C
Dew
Point
Rel
Hum
%
Delta-T
°C
Wind Press
QNH
hPa
Press
MSL
hPa
Rain
since 9 am
mm
Dir
 
Spd
km/h
Gust
km/h
Spd
kts
Gust
kts
05/11:30pm 18.8 20.8 15.9 83 1.7 CALM 0 0 0 0 1016.5 - 0.0
05/11:00pm 19.1 20.0 15.2 78 2.3 SSE 4 9 2 5 1016.6 - 0.0
05/10:30pm 19.6 20.8 15.9 79 2.2 SE 4 9 2 5 1016.7 - 0.0
05/10:00pm 18.0 18.8 14.7 81 1.9 NE 4 9 2 5 1016.4 - 0.0
05/09:30pm 17.2 17.0 13.5 79 2.1 ESE 7 9 4 5 1016.3 - 0.0
05/09:00pm 17.5 17.1 13.0 75 2.5 SE 7 9 4 5 1016.1 1015.3 0.0
05/08:30pm 18.4 18.2 13.5 73 2.8 ESE 7 9 4 5 1015.9 - 0.0
05/08:00pm 18.3 18.9 13.0 71 3.0 E 2 9 1 5 1015.7 - 0.0
05/07:30pm 18.6 19.3 12.1 66 3.6 CALM 0 6 0 3 1015.3 - 0.0
05/07:00pm 21.3 20.3 12.4 57 5.1 SSE 9 11 5 6 1014.8 - 0.0
05/06:30pm 23.2 22.5 13.1 53 5.9 E 9 15 5 8 1014.7 - 0.0
05/06:00pm 24.4 23.3 13.0 49 6.6 ESE 11 15 6 8 1014.5 1013.8 0.0
05/05:30pm 25.8 24.3 13.0 45 7.5 ESE 13 19 7 10 1014.2 - 0.0
05/05:00pm 26.8 25.0 13.2 43 8.0 ESE 15 24 8 13 1013.9 - 0.0
05/04:30pm 27.5 24.3 11.9 38 9.1 SSE 20 28 11 15 1013.8 - 0.0
05/04:00pm 27.8 25.3 12.2 38 9.1 ESE 17 22 9 12 1013.7 - 0.0
05/03:30pm 28.4 26.9 13.1 39 9.1 E 13 24 7 13 1013.8 - 0.0
05/03:00pm 27.4 25.6 12.2 39 8.9 ENE 13 24 7 13 1013.9 1013.2 0.0
05/02:30pm 28.8 26.8 12.7 37 9.5 ENE 15 24 8 13 1014.1 - 0.0
05/02:00pm 28.6 26.5 12.5 37 9.5 ENE 15 33 8 18 1014.4 - 0.0
05/01:30pm 28.8 25.6 11.4 34 10.1 ESE 19 24 10 13 1014.8 - 0.0
05/01:00pm 28.0 26.2 10.7 34 9.9 E 11 20 6 11 1015.1 - 0.0
05/12:30pm 27.2 26.1 13.2 42 8.3 ESE 11 19 6 10 1015.7 - 0.0
05/12:00pm 27.3 25.5 13.3 42 8.3 NE 15 24 8 13 1016.0 1015.3 0.0
05/11:30am 27.9 27.4 14.9 45 7.9 NE 11 20 6 11 1016.5 - 0.0
05/11:00am 26.5 24.8 14.6 48 7.2 ENE 17 26 9 14 1016.9 - 0.0
05/10:30am 26.8 25.5 14.9 48 7.2 E 15 19 8 10 1017.0 - 0.0
05/10:00am 25.4 25.4 15.1 53 6.2 NE 9 17 5 9 1017.1 - 0.0
05/09:30am 24.7 25.7 15.3 56 5.7 NNW 4 11 2 6 1017.2 - 0.0
05/09:00am 23.1 24.7 15.9 64 4.4 WSW 2 7 1 4 1017.2 1016.6 0.0
05/08:30am 21.7 23.0 16.2 71 3.3 WSW 4 7 2 4 1016.9 - 0.0
05/08:00am 19.6 21.3 17.2 86 1.5 NNE 4 9 2 5 1016.7 - 0.0
05/07:30am 17.6 19.7 16.3 92 0.8 CALM 0 0 0 0 1016.5 - 0.0
05/07:00am 16.9 18.3 15.4 91 0.9 WSW 2 7 1 4 1016.1 - 0.0
05/06:30am 17.1 18.9 15.6 91 0.9 CALM 0 0 0 0 1015.8 - 0.0
05/06:00am 16.8 18.5 15.2 90 0.9 CALM 0 7 0 4 1015.6 1014.9 0.0
05/05:30am 17.0 18.7 15.2 89 1.1 CALM 0 0 0 0 1015.4 - 0.0
05/05:00am 17.6 19.5 15.8 89 1.1 CALM 0 4 0 2 1015.1 - 0.0
05/04:30am 18.0 20.0 16.0 88 1.2 CALM 0 0 0 0 1014.9 - 0.0
05/04:00am 18.0 20.1 16.2 89 1.1 CALM 0 0 0 0 1014.8 - 0.0
05/03:30am 17.5 19.4 15.7 89 1.1 CALM 0 0 0 0 1014.7 - 0.0
05/03:00am 17.3 19.0 15.1 87 1.3 CALM 0 0 0 0 1014.8 1014.1 0.0
05/02:30am 17.6 19.4 15.4 87 1.3 CALM 0 0 0 0 1015.0 - 0.0
05/02:00am 17.5 18.5 15.3 87 1.3 WNW 4 9 2 5 1015.1 - 0.0
05/01:30am 18.3 20.1 15.6 84 1.6 CALM 0 0 0 0 1015.3 - 0.0
05/01:00am 19.3 21.2 15.8 80 2.1 CALM 0 0 0 0 1015.4 - 0.0
05/12:30am 19.9 20.8 16.0 78 2.3 W 6 7 3 4 1015.6 - 0.0
05/12:00am 20.2 22.2 16.0 77 2.5 CALM 0 0 0 0 1015.8 1015.1 0.0
 
Date/Time
EST
Temp
°C
App
Temp
°C
Dew
Point
Rel
Hum
%
Delta-T
°C
Wind Press
QNH
hPa
Press
MSL
hPa
Rain
since 9 am
mm
Dir
 
Spd
km/h
Gust
km/h
Spd
kts
Gust
kts
04/11:30pm 20.2 22.1 15.8 76 2.6 CALM 0 0 0 0 1015.9 - 0.0
04/11:00pm 20.9 22.8 15.7 72 3.1 CALM 0 0 0 0 1016.0 - 0.0
04/10:30pm 21.7 22.5 15.8 69 3.6 ENE 6 7 3 4 1016.1 - 0.0
04/10:00pm 21.8 22.4 15.9 69 3.6 ENE 7 11 4 6 1016.0 - 0.0
04/09:30pm 21.9 22.8 16.2 70 3.5 E 6 13 3 7 1015.9 - 0.0
04/09:00pm 21.8 22.9 16.5 72 3.2 E 6 11 3 6 1015.7 1015.0 0.0
04/08:30pm 21.9 23.3 16.4 71 3.4 ESE 4 9 2 5 1015.6 - 0.0
04/08:00pm 22.1 22.2 16.6 71 3.4 ENE 11 22 6 12 1015.4 - 0.0
04/07:30pm 22.2 21.5 16.5 70 3.5 NE 15 26 8 14 1014.9 - 0.0
04/07:00pm 22.5 21.4 15.4 64 4.3 NE 15 20 8 11 1014.7 - 0.0
04/06:30pm 22.7 21.6 14.3 59 5.0 NE 13 20 7 11 1014.4 - 0.0
04/06:00pm 24.2 22.9 12.5 48 6.8 NE 11 17 6 9 1014.1 1013.4 0.0
04/05:30pm 25.7 24.6 11.8 42 8.0 E 9 13 5 7 1013.5 - 0.0
04/05:00pm 25.7 23.9 12.2 43 7.8 ESE 13 19 7 10 1013.3 - 0.0
04/04:30pm 26.4 25.2 12.8 43 8.0 ESE 11 13 6 7 1013.0 - 0.0
04/04:00pm 26.6 25.1 13.0 43 8.0 SE 13 17 7 9 1012.8 - 0.0
04/03:30pm 26.9 25.3 14.0 45 7.7 SE 15 19 8 10 1012.8 - 0.0
04/03:00pm 26.9 25.9 14.6 46 7.4 SSE 13 19 7 10 1013.0 1012.3 0.0
04/02:30pm 28.8 26.9 13.1 38 9.3 SE 15 35 8 19 1013.2 - 0.0
04/02:00pm 28.6 26.7 12.9 38 9.3 ENE 15 24 8 13 1013.5 - 0.0
04/01:30pm 28.6 27.6 13.3 39 9.1 SSE 11 20 6 11 1013.7 - 0.0
04/01:00pm 28.9 27.4 13.2 38 9.4 SE 13 22 7 12 1014.2 - 0.0
04/12:30pm 28.0 26.8 12.8 39 9.0 SSE 11 20 6 11 1014.8 - 0.0
04/12:00pm 27.9 26.3 13.8 42 8.4 ENE 15 26 8 14 1015.4 1014.7 0.0
04/11:30am 26.6 24.4 13.3 43 7.9 NE 17 26 9 14 1015.8 - 0.0
04/11:00am 26.3 26.8 15.0 49 6.9 ESE 6 13 3 7 1016.1 - 0.0
04/10:30am 24.9 25.4 15.0 54 6.0 SE 6 9 3 5 1016.3 - 0.0
04/10:00am 23.2 23.6 14.7 58 5.1 SSE 6 13 3 7 1016.4 - 0.0
04/09:30am 23.1 23.4 14.9 60 4.9 WSW 7 9 4 5 1016.5 - 0.0
04/09:00am 22.1 22.7 15.9 68 3.8 SSE 7 11 4 6 1016.2 1015.5 0.0
04/08:30am 19.5 21.4 15.8 79 2.2 CALM 0 6 0 3 1016.3 - 0.0
04/08:00am 16.3 17.5 14.8 91 0.9 SSE 2 11 1 6 1015.8 - 0.0
04/07:30am 14.0 14.2 13.2 95 0.4 SSE 4 7 2 4 1015.7 - 0.0
04/07:00am 12.2 12.2 11.3 94 0.5 ESE 2 9 1 5 1015.6 - 0.0
04/06:30am 12.9 13.1 12.0 94 0.5 SSW 2 7 1 4 1015.2 - 0.0
04/06:00am 12.9 13.5 12.0 94 0.5 CALM 0 0 0 0 1014.9 1014.2 0.0
04/05:30am 13.3 12.8 12.2 93 0.6 S 6 9 3 5 1014.7 - 0.0
04/05:00am 13.4 13.7 12.3 93 0.6 NNE 2 7 1 4 1014.9 - 0.0
04/04:30am 13.5 14.2 12.2 92 0.7 CALM 0 0 0 0 1014.8 - 0.0
04/04:00am 13.3 13.8 11.7 90 0.9 CALM 0 0 0 0 1014.8 - 0.0
04/03:30am 14.2 15.1 12.8 91 0.8 CALM 0 0 0 0 1014.8 - 0.0
04/03:00am 14.8 15.4 13.0 89 1.0 W 2 7 1 4 1014.9 1014.2 0.0
04/02:30am 15.6 16.6 13.3 86 1.3 CALM 0 0 0 0 1015.0 - 0.0
04/02:00am 16.4 16.2 12.9 80 2.0 SSW 6 9 3 5 1015.3 - 0.0
04/01:30am 19.0 19.1 14.5 75 2.6 E 7 11 4 6 1015.5 - 0.0
04/01:00am 19.6 19.8 14.8 74 2.8 E 7 13 4 7 1015.8 - 0.0
04/12:30am 18.6 18.5 14.9 79 2.2 E 9 17 5 9 1015.9 - 0.0
04/12:00am 17.1 17.1 15.3 89 1.1 E 9 13 5 7 1016.3 1015.6 0.0
 
Date/Time
EST
Temp
°C
App
Temp
°C
Dew
Point
Rel
Hum
%
Delta-T
°C
Wind Press
QNH
hPa
Press
MSL
hPa
Rain
since 9 am
mm
Dir
 
Spd
km/h
Gust
km/h
Spd
kts
Gust
kts
03/11:30pm 16.5 17.9 14.3 87 1.3 CALM 0 6 0 3 1016.3 - 0.0
03/11:00pm 17.3 18.1 14.8 85 1.5 E 4 7 2 4 1016.4 - 0.0
03/10:30pm 17.6 18.4 14.7 83 1.7 SSE 4 7 2 4 1016.6 - 0.0
03/10:00pm 18.4 19.6 14.9 80 2.1 SSE 2 9 1 5 1016.5 - 0.0
03/09:30pm 19.1 20.7 14.8 76 2.5 CALM 0 0 0 0 1016.4 - 0.0
03/09:00pm 19.7 21.1 15.4 76 2.6 ESE 2 7 1 4 1016.3 1015.6 0.0
03/08:30pm 19.5 20.8 15.2 76 2.5 SE 2 9 1 5 1016.1 - 0.0
03/08:00pm 20.0 21.7 15.2 74 2.8 CALM 0 0 0 0 1015.7 - 0.0
03/07:30pm 20.5 21.4 15.1 71 3.2 NE 4 7 2 4 1015.4 - 0.0
03/07:00pm 21.5 22.2 15.6 69 3.5 ENE 6 11 3 6 1015.2 - 0.0
03/06:30pm 22.4 22.3 15.0 63 4.4 ENE 9 11 5 6 1015.0 - 0.0
03/06:00pm 23.7 23.3 14.1 55 5.7 E 9 17 5 9 1014.5 1013.8 0.0
03/05:30pm 25.2 24.7 13.7 49 6.8 E 9 13 5 7 1014.3 - 0.0
03/05:00pm 25.9 24.6 12.4 43 7.8 E 11 17 6 9 1014.0 - 0.0
03/04:30pm 26.3 23.7 12.0 41 8.3 ESE 17 32 9 17 1013.6 - 0.0
03/04:00pm 26.7 23.9 11.2 38 8.9 ESE 17 24 9 13 1013.5 - 0.0
03/03:30pm 26.4 23.8 12.1 41 8.3 ESE 17 26 9 14 1013.5 - 0.0
03/03:00pm 25.5 22.6 13.0 46 7.3 SE 20 28 11 15 1013.7 1013.0 0.0

Other Formats:

Comma delimited format used in spreadsheet applications
http://www.bom.gov.au/fwo/IDQ60801/IDQ60801.94183.axf

JavaScript Object Notation format (JSON) in row-major order
http://www.bom.gov.au/fwo/IDQ60801/IDQ60801.94183.json